KJ7AZ-3 Weather Reports


Display with metric or nautical units.
time (UTC)temp
F
wind
direction
speed
MPH
gust
MPH
rain 1hr
in
rain 24hr
in
rain mn
in
humidity
%
barometer
mb
20240222074333 38 345 0.0 0.0 0.00 0.00 0.00
20240222065837 38 42 0.0 0.0 0.00 0.00 0.00
20240222064338 38 42 0.0 0.0 0.00 0.00 0.00
20240222061340 36 42 0.0 0.0 0.00 0.00 0.00
20240222054342 38 42 0.0 0.0 0.00 0.00 0.00
20240222052843 38 28 0.0 0.0 0.00 0.00 0.00
20240222051345 39 34 3.0 6.0 0.00 0.00 0.00
20240222045846 39 39 3.0 3.0 0.00 0.00 0.00
20240222044347 39 51 3.0 1.0 0.00 0.00 0.00
20240222042848 41 65 3.0 1.0 0.00 0.00 0.00
20240222041349 40 30 3.0 2.0 0.00 0.00 0.00
20240222034351 40 58 0.0 0.0 0.00 0.00 0.00
20240222031352 41 354 0.0 0.0 0.00 0.00 0.00
20240222004401 58 332 9.0 11.0 0.00 0.00 0.00
20240222001402 60 332 9.0 13.0 0.00 0.00 0.00
20240221235902 62 338 9.0 11.0 0.00 0.00 0.00
20240221232903 62 342 12.0 9.0 0.00 0.00 0.00
20240221222905 65 316 11.0 14.0 0.00 0.00 0.00
20240221221407 65 308 14.0 16.0 0.00 0.00 0.00
20240221215906 66 314 11.0 11.0 0.00 0.00 0.00
20240221214407 66 345 18.0 14.0 0.00 0.00 0.00
20240221211408 67 353 12.0 8.0 0.00 0.00 0.00
20240221205909 66 316 14.0 11.0 0.00 0.00 0.00
20240221204409 65 288 14.0 13.0 0.00 0.00 0.00
20240221195911 65 335 14.0 10.0 0.00 0.00 0.00
20240221194412 62 336 9.0 8.0 0.00 0.00 0.00
20240221192912 63 305 14.0 13.0 0.00 0.00 0.00
20240221184414 63 314 15.0 17.0 0.00 0.00 0.00
20240221172918 61 315 10.0 12.0 0.00 0.00 0.00
20240221171419 61 298 7.0 11.0 0.00 0.00 0.00
20240221162921 56 335 7.0 3.0 0.00 0.00 0.00
20240221161422 57 315 7.0 9.0 0.00 0.00 0.00
20240221155923 56 329 3.0 2.0 0.00 0.00 0.00
20240221154424 55 283 0.0 0.0 0.00 0.00 0.00
20240221152924 54 46 0.0 0.0 0.00 0.00 0.00
20240221151425 55 46 0.0 0.0 0.00 0.00 0.00
20240221145926 52 46 0.0 0.0 0.00 0.00 0.00
20240221142928 47 46 0.0 0.0 0.00 0.00 0.00
20240221141429 42 46 0.0 0.0 0.00 0.00 0.00
20240221135930 37 46 0.0 0.0 0.00 0.00 0.00
20240221134431 35 46 0.0 0.0 0.00 0.00 0.00
20240221131433 36 46 0.0 0.0 0.00 0.00 0.00
20240221125934 35 46 0.0 0.0 0.00 0.00 0.00
20240221124435 36 46 0.0 0.0 0.00 0.00 0.00
20240221122936 38 46 0.0 0.0 0.00 0.00 0.00
20240221121437 38 46 0.0 0.0 0.00 0.00 0.00
20240221115938 37 46 0.0 0.0 0.00 0.00 0.00
20240221114440 36 46 0.0 0.0 0.00 0.00 0.00
20240221111442 33 46 0.0 0.0 0.00 0.00 0.00
20240221105943 33 46 0.0 0.0 0.00 0.00 0.00
20240221104443 33 46 0.0 0.0 0.00 0.00 0.00
20240221102944 33 46 0.0 0.0 0.00 0.00 0.00
20240221101445 35 46 0.0 0.0 0.00 0.00 0.00
20240221095946 38 46 0.0 0.0 0.00 0.00 0.00
20240221094447 37 46 0.0 0.0 0.00 0.00 0.00
20240221092948 35 46 0.0 0.0 0.00 0.00 0.00
20240221091449 37 46 0.0 0.0 0.00 0.00 0.00
20240221085950 40 46 0.0 0.0 0.00 0.00 0.00
20240221084451 39 46 0.0 0.0 0.00 0.00 0.00
20240221082952 40 46 0.0 0.0 0.00 0.00 0.00
20240221081453 39 46 0.0 0.0 0.00 0.00 0.00